Ishpeming, MI

2:37 PM EDT on October 30, 2014 (GMT -0400)
APRSWXNET Ishpeming MI US | Change Station
CLOSE
Current Station
Personal Weather Station
Location: North Lake, MI
Elevation: 1476 ft
Nearby Weather Stations

Elev 1476 ft 46.49 °N, 87.72 °W | Updated 36 minutes ago

Overcast
Overcast
40.0 °F
Feels Like 40.0 °F
N
2.0
Wind Variable Wind from West
Gusts 7.0 mph

Today
High -- | Low -- °F
--% Chance of Precip.
Yesterday
High -- | Low -- °F
Precip. -- in
8:29 AM 6:38 PM
Waxing Crescent, 46% visible
Pressure 30.00 in
Visibility 10.0 miles
Clouds Overcast 2000 ft
Dew Point 37.0 °F
Humidity 88%
Rainfall 0.01 in
Snow Depth Not available.
UV 1 out of 12
Pollen .20 out of 12
Air Quality Not available.
Flu Activity Not available.
METAR KSAW 301745Z 22007KT 10SM OVC020 05/00 A3000

More Conditions Fewer Conditions

Pressure 30.00 in
Visibility 10.0 miles
Clouds Overcast 2000 ft
Dew Point 37.0 °F
Humidity 88%
Rainfall 0.01 in
Snow Depth Not available.
UV 1 out of 12
Pollen .20 out of 12
Air Quality Not available.
Flu Activity Not available.
METAR KSAW 301745Z 22007KT 10SM OVC020 05/00 A3000

More Conditions Fewer Conditions

10-Day Weather Forecast

Almanac

Astronomy

Oct. 30, 2014 Rise Set
Actual Time
Civil Twilight
Nautical Twilight
Astronomical Twilight
Moon
Length of Visible Light
Length of Day
Tomorrow will be .
, % of the Moon is Illuminated

Today's Extremes

State Highs State Lows

Community

WunderPhotos

Upload Photos

1,766,423 photos uploaded!

WunderBlogs® & News

Nearby

Air Quality

  Air Quality AQ Index Pollutant
Not available.

Snow Depth

Station Depth Elevation

Earthquake Activity

City Distance Mag. Time & Date
Minimum magnitude displayed is 2.5.

Coastal Water Temperatures

Place Temperature

Nearby Weather Stations